createdAt,value
2023-02-08T00:00:44.583Z,104.28
2023-02-08T00:03:11.586Z,113.30
2023-02-08T00:05:38.620Z,112.95
2023-02-08T00:08:06.167Z,108.18
2023-02-08T00:10:32.983Z,115.63
2023-02-08T00:13:00.010Z,109.43
2023-02-08T00:15:26.796Z,101.43
2023-02-08T00:17:53.565Z,97.53
2023-02-08T00:20:20.458Z,105.68
2023-02-08T00:22:47.273Z,97.55
2023-02-08T00:25:14.028Z,91.55
2023-02-08T00:27:40.893Z,99.22
2023-02-08T00:30:08.520Z,96.75
2023-02-08T00:32:35.356Z,83.88
2023-02-08T00:35:02.143Z,90.65
2023-02-08T00:37:28.898Z,92.75
2023-02-08T00:39:55.754Z,99.20
2023-02-08T00:42:23.104Z,82.53
2023-02-08T00:44:49.855Z,91.53
2023-02-08T00:47:16.625Z,97.53
2023-02-08T00:49:43.387Z,97.38
2023-02-08T00:52:10.172Z,89.18
2023-02-08T00:54:37.069Z,120.72
2023-02-08T00:57:03.915Z,106.22
2023-02-08T00:59:30.730Z,101.93
2023-02-08T01:01:57.526Z,117.53
2023-02-08T01:04:24.474Z,122.18
2023-02-08T01:06:51.381Z,116.28
2023-02-08T01:09:18.215Z,107.30
2023-02-08T01:11:45.017Z,129.25
2023-02-08T01:14:11.736Z,120.80
2023-02-08T01:16:38.976Z,134.93
2023-02-08T01:19:06.313Z,128.90
2023-02-08T01:21:35.710Z,121.50
2023-02-08T01:24:02.846Z,127.68
2023-02-08T01:26:30.492Z,135.73
2023-02-08T01:28:57.479Z,142.20
2023-02-08T01:31:28.097Z,139.75
2023-02-08T01:33:56.173Z,138.77
2023-02-08T01:36:23.450Z,127.68
2023-02-08T01:38:50.586Z,132.30
2023-02-08T01:41:26.378Z,133.20
2023-02-08T01:44:03.547Z,132.98
2023-02-08T01:46:31.580Z,116.95
2023-02-08T01:49:02.952Z,117.97
2023-02-08T01:54:01.026Z,106.03
2023-02-08T01:56:34.218Z,101.03
2023-02-08T01:59:05.049Z,116.05
2023-02-08T02:01:32.143Z,82.10
2023-02-08T02:04:05.015Z,113.38
2023-02-08T02:06:35.968Z,112.07
2023-02-08T02:09:05.810Z,110.03
2023-02-08T02:11:32.795Z,110.20
2023-02-08T02:14:01.535Z,102.15
2023-02-08T02:16:28.397Z,112.40
2023-02-08T02:18:55.249Z,109.18
2023-02-08T02:21:44.791Z,125.88
2023-02-08T02:24:39.052Z,119.20
2023-02-08T02:27:05.770Z,123.32
2023-02-08T02:29:47.608Z,125.15
2023-02-08T02:32:45.230Z,109.50
2023-02-08T02:35:30.570Z,120.65
2023-02-08T02:38:09.397Z,121.35
2023-02-08T02:40:36.143Z,115.53
2023-02-08T02:43:21.462Z,112.00
2023-02-08T02:45:59.666Z,107.00
2023-02-08T02:48:38.611Z,155.65
2023-02-08T02:51:18.336Z,140.57
2023-02-08T02:53:54.638Z,125.85
2023-02-08T02:56:31.088Z,118.07
2023-02-08T02:59:02.619Z,122.50
2023-02-08T03:01:30.315Z,109.43
2023-02-08T03:03:57.623Z,108.15
2023-02-08T03:06:53.362Z,114.82
2023-02-08T03:09:20.096Z,111.40
2023-02-08T03:11:57.200Z,114.30
2023-02-08T03:14:50.263Z,112.97
2023-02-08T03:17:38.356Z,105.05
2023-02-08T03:20:14.956Z,101.63
2023-02-08T03:22:58.678Z,107.75
2023-02-08T03:25:30.309Z,103.43
2023-02-08T03:28:09.865Z,99.07
2023-02-08T03:30:36.718Z,91.78
2023-02-08T04:03:24.744Z,117.45
2023-02-08T04:05:51.884Z,105.15
2023-02-08T04:08:19.312Z,108.05
2023-02-08T04:10:47.904Z,112.13
2023-02-08T04:13:14.906Z,96.22
2023-02-08T04:15:41.728Z,102.13
2023-02-08T04:18:08.585Z,89.68
2023-02-08T04:20:35.336Z,95.43
2023-02-08T04:23:02.110Z,92.90
2023-02-08T04:25:28.872Z,84.55
2023-02-08T04:27:55.627Z,84.95
2023-02-08T04:30:22.384Z,90.88
2023-02-08T04:32:49.102Z,88.72
2023-02-08T04:35:15.948Z,94.35
2023-02-08T04:37:42.722Z,108.07
2023-02-08T04:40:10.288Z,100.43
